Annahilt, United Kingdom
Current Conditions -  °F | °C
As of 7:20 AM on Wednesday 22 Oct 2014 (Local Time) from EGAC Reporting Station
Broken Clouds Broken Clouds  
Wind Chill: 43°   Ceiling: 2800
Heat Index: 48°   Visibility: 6mi
Dew Point: 43°   Wind: 14mph
Humidity: 82%   Direction: 210°SSW
Pressure: 30.18"   Gusts: NA
Location:  54.43°N, 6°W
Report Text: EGAC 220620Z 21012KT 9999 FEW018 SCT025 BKN028 09/06 Q1022
Loading
Personal Weather Stations






























Interactive Weather Map New forecast layout! Learn more

10-Day Weather Forecast

Advertisements
Track Severe Weather on mobile